createdAt,value
2022-10-19T00:01:20.924Z,59.57
2022-10-19T00:03:55.857Z,59.66
2022-10-19T00:06:33.337Z,59.61
2022-10-19T00:09:19.742Z,59.86
2022-10-19T00:11:51.586Z,59.91
2022-10-19T00:14:24.023Z,59.94
2022-10-19T00:16:53.171Z,59.98
2022-10-19T00:19:24.866Z,60.15
2022-10-19T00:21:53.596Z,59.99
2022-10-19T00:24:22.929Z,60.12
2022-10-19T00:26:50.697Z,60.31
2022-10-19T00:29:19.334Z,60.43
2022-10-19T00:31:53.609Z,60.66
2022-10-19T00:34:21.451Z,60.80
2022-10-19T00:36:50.611Z,60.86
2022-10-19T00:39:19.362Z,61.04
2022-10-19T00:41:48.050Z,61.23
2022-10-19T00:44:16.419Z,61.09
2022-10-19T00:46:50.664Z,61.13
2022-10-19T00:49:30.295Z,61.34
2022-10-19T00:52:04.031Z,61.44
2022-10-19T00:54:36.102Z,61.47
2022-10-19T00:57:05.271Z,61.46
2022-10-19T00:59:34.835Z,61.37
2022-10-19T01:02:05.429Z,61.54
2022-10-19T01:04:37.207Z,61.74
2022-10-19T01:07:08.377Z,61.96
2022-10-19T01:09:36.174Z,61.80
2022-10-19T01:12:23.662Z,61.87
2022-10-19T01:15:17.505Z,62.10
2022-10-19T01:18:03.802Z,62.20
2022-10-19T01:20:50.551Z,62.28
2022-10-19T01:23:40.319Z,62.38
2022-10-19T01:26:23.034Z,62.50
2022-10-19T01:29:15.764Z,62.40
2022-10-19T01:31:57.687Z,62.42
2022-10-19T01:34:38.403Z,62.64
2022-10-19T01:37:36.708Z,62.58
2022-10-19T01:40:31.290Z,62.65
2022-10-19T01:43:11.869Z,62.71
2022-10-19T01:46:04.078Z,63.59
2022-10-19T01:48:36.186Z,63.28
2022-10-19T01:51:09.720Z,62.99
2022-10-19T01:53:44.511Z,63.10
2022-10-19T01:56:13.678Z,63.26
2022-10-19T01:58:47.158Z,63.46
2022-10-19T02:01:19.889Z,63.18
2022-10-19T02:03:49.062Z,63.26
2022-10-19T02:06:18.463Z,63.27
2022-10-19T02:08:52.573Z,63.23
2022-10-19T02:11:23.447Z,63.45
2022-10-19T02:13:59.885Z,63.25
2022-10-19T02:16:35.330Z,63.64
2022-10-19T02:19:05.653Z,63.56
2022-10-19T02:21:33.314Z,64.03
2022-10-19T02:24:01.012Z,63.73
2022-10-19T02:26:29.705Z,63.82
2022-10-19T02:28:58.813Z,63.75
2022-10-19T02:31:27.282Z,64.14
2022-10-19T02:33:55.166Z,64.31
2022-10-19T02:36:23.034Z,63.95
2022-10-19T02:38:52.328Z,64.24
2022-10-19T02:41:42.831Z,64.84
2022-10-19T02:44:21.553Z,64.52
2022-10-19T02:47:03.788Z,64.40
2022-10-19T02:49:35.461Z,64.53
2022-10-19T02:52:09.451Z,64.39
2022-10-19T02:54:39.580Z,64.53
2022-10-19T02:57:20.856Z,64.73
2022-10-19T02:59:49.429Z,64.79
2022-10-19T03:02:19.641Z,64.65
2022-10-19T03:07:21.752Z,64.93
2022-10-19T03:09:49.803Z,64.91
2022-10-19T03:12:18.627Z,64.96
2022-10-19T03:14:46.449Z,64.78
2022-10-19T03:17:16.585Z,65.48
2022-10-19T03:19:44.907Z,65.10
2022-10-19T03:22:15.034Z,65.17
2022-10-19T03:24:42.888Z,66.06
2022-10-19T03:27:10.582Z,65.72
2022-10-19T03:29:38.326Z,65.52
2022-10-19T03:32:07.092Z,65.44
2022-10-19T03:34:34.731Z,65.37
2022-10-19T03:37:03.031Z,65.41
2022-10-19T03:39:32.702Z,65.68
2022-10-19T03:42:01.310Z,65.57
2022-10-19T03:44:29.124Z,65.57
2022-10-19T03:46:58.645Z,65.52
2022-10-19T03:49:26.403Z,65.69
2022-10-19T03:51:54.215Z,65.70
2022-10-19T03:54:24.978Z,65.85
2022-10-19T03:56:55.523Z,65.85
2022-10-19T03:59:24.788Z,66.00
2022-10-19T04:01:54.592Z,66.13
2022-10-19T04:04:22.321Z,66.14
2022-10-19T04:06:54.306Z,66.14
2022-10-19T04:09:23.504Z,65.98
2022-10-19T04:11:51.292Z,66.09
2022-10-19T04:14:32.721Z,65.85
2022-10-19T04:17:07.305Z,66.18
2022-10-19T04:19:34.975Z,66.35
2022-10-19T04:22:03.973Z,66.39
2022-10-19T04:24:33.150Z,66.63
2022-10-19T04:27:01.954Z,66.68
2022-10-19T04:29:30.060Z,66.54
2022-10-19T04:32:00.002Z,66.52
2022-10-19T04:34:28.392Z,66.57
2022-10-19T04:36:59.724Z,66.46
2022-10-19T04:39:28.056Z,66.95
2022-10-19T04:41:55.942Z,67.29
2022-10-19T04:46:57.981Z,66.95
2022-10-19T04:49:25.638Z,67.09
2022-10-19T04:51:54.157Z,66.87
2022-10-19T04:54:22.163Z,66.83
2022-10-19T04:56:50.661Z,66.95
2022-10-19T04:59:18.379Z,67.04
2022-10-19T05:01:47.211Z,68.20
2022-10-19T05:04:15.914Z,67.28
2022-10-19T05:06:45.507Z,67.28
2022-10-19T05:09:14.247Z,67.35
2022-10-19T05:11:42.076Z,67.29
2022-10-19T05:14:09.851Z,67.18
2022-10-19T05:16:40.049Z,67.39
2022-10-19T05:19:07.943Z,67.43
2022-10-19T05:21:35.615Z,67.42
2022-10-19T05:24:04.763Z,67.54
2022-10-19T05:26:32.588Z,67.42
2022-10-19T05:29:02.726Z,67.36
2022-10-19T05:31:35.437Z,67.63
2022-10-19T05:34:04.700Z,67.50
2022-10-19T05:36:37.881Z,67.43
2022-10-19T05:39:17.694Z,67.63
2022-10-19T05:41:47.672Z,67.48
2022-10-19T05:44:20.304Z,67.54
2022-10-19T05:46:51.762Z,67.85
2022-10-19T05:49:21.418Z,68.02
2022-10-19T05:51:51.029Z,67.98
2022-10-19T05:54:21.806Z,67.85
2022-10-19T05:56:51.987Z,68.14
2022-10-19T05:59:24.194Z,68.00
2022-10-19T06:01:51.921Z,67.98
2022-10-19T06:04:19.674Z,67.98
2022-10-19T06:06:47.521Z,68.03
2022-10-19T06:09:15.238Z,68.03
2022-10-19T06:11:43.069Z,68.12
2022-10-19T06:14:16.085Z,68.01
2022-10-19T06:16:48.528Z,68.00
2022-10-19T06:19:17.494Z,67.99
2022-10-19T06:21:46.467Z,68.11
2022-10-19T06:24:15.270Z,68.29
2022-10-19T06:26:42.976Z,68.23
2022-10-19T06:29:12.157Z,68.32
2022-10-19T06:31:40.000Z,68.25
2022-10-19T06:34:07.888Z,68.19
2022-10-19T06:36:35.681Z,68.35
2022-10-19T06:39:04.733Z,68.21
2022-10-19T06:41:34.366Z,68.26
2022-10-19T06:44:02.117Z,68.32
2022-10-19T06:46:29.975Z,68.37
2022-10-19T06:49:01.626Z,68.37
2022-10-19T06:51:34.250Z,68.26
2022-10-19T06:54:04.173Z,68.59
2022-10-19T06:56:33.084Z,68.37
2022-10-19T06:59:02.867Z,68.50
2022-10-19T07:01:31.591Z,68.32
2022-10-19T07:03:59.297Z,68.34
2022-10-19T07:06:29.240Z,68.32
2022-10-19T07:08:56.979Z,68.43
2022-10-19T07:11:27.178Z,68.55
2022-10-19T07:13:56.165Z,68.33
2022-10-19T07:16:26.092Z,68.26
2022-10-19T07:18:53.832Z,68.34
2022-10-19T07:21:23.430Z,68.29
2022-10-19T07:23:51.935Z,68.25
2022-10-19T07:26:28.536Z,68.40
2022-10-19T07:28:57.920Z,68.28
2022-10-19T07:31:29.142Z,68.29
2022-10-19T07:34:01.244Z,68.28
2022-10-19T07:36:33.278Z,68.22
2022-10-19T07:39:08.244Z,68.18
2022-10-19T07:41:35.985Z,68.10
2022-10-19T07:44:05.297Z,68.11
2022-10-19T07:46:38.060Z,68.16
2022-10-19T07:49:10.602Z,68.10
2022-10-19T07:51:40.346Z,68.05
2022-10-19T07:54:09.181Z,68.15
2022-10-19T07:56:37.186Z,68.05
2022-10-19T07:59:08.357Z,68.04
2022-10-19T08:01:45.705Z,67.89
2022-10-19T08:04:55.571Z,67.91
2022-10-19T08:07:01.161Z,68.01
2022-10-19T08:12:17.534Z,67.76
2022-10-19T08:14:48.880Z,67.74
2022-10-19T08:17:18.625Z,67.40
2022-10-19T08:19:47.159Z,67.13
2022-10-19T08:22:16.094Z,67.49
2022-10-19T08:24:43.887Z,67.55
2022-10-19T08:27:11.623Z,67.27
2022-10-19T08:29:41.426Z,67.04
2022-10-19T08:32:09.186Z,66.72
2022-10-19T08:34:38.024Z,67.16
2022-10-19T08:37:14.718Z,66.34
2022-10-19T08:39:55.830Z,66.08
2022-10-19T08:42:34.719Z,66.62
2022-10-19T08:45:36.901Z,66.58
2022-10-19T08:48:21.313Z,66.56
2022-10-19T08:50:53.112Z,66.52
2022-10-19T08:53:41.300Z,66.54
2022-10-19T08:56:45.927Z,66.50
2022-10-19T08:59:34.921Z,66.52
2022-10-19T09:02:20.463Z,66.58
2022-10-19T09:04:56.984Z,65.92
2022-10-19T09:07:28.493Z,65.81
2022-10-19T09:10:15.867Z,65.48
2022-10-19T09:13:16.194Z,65.52
2022-10-19T09:15:51.481Z,65.72
2022-10-19T09:18:28.723Z,65.61
2022-10-19T09:21:33.416Z,65.24
2022-10-19T09:24:48.506Z,64.66
2022-10-19T09:27:23.466Z,64.72
2022-10-19T09:30:04.557Z,64.73
2022-10-19T09:32:38.776Z,64.86
2022-10-19T09:35:18.817Z,64.96
2022-10-19T09:37:51.996Z,65.07
2022-10-19T09:40:25.141Z,65.10
2022-10-19T09:42:58.444Z,65.00
2022-10-19T09:45:51.877Z,64.98
2022-10-19T09:48:36.867Z,64.83
2022-10-19T09:51:14.170Z,64.75
2022-10-19T09:53:50.221Z,64.46
2022-10-19T09:56:26.513Z,64.37
2022-10-19T09:58:58.177Z,64.39
2022-10-19T10:01:43.984Z,64.58
2022-10-19T10:04:19.160Z,64.63
2022-10-19T10:06:49.394Z,64.67
2022-10-19T10:09:23.038Z,64.61
2022-10-19T10:14:36.227Z,64.37
2022-10-19T10:17:08.580Z,64.47
2022-10-19T10:19:38.257Z,64.28
2022-10-19T10:22:26.055Z,64.17
2022-10-19T10:24:56.820Z,64.34
2022-10-19T10:27:38.994Z,64.37
2022-10-19T10:30:20.726Z,64.20
2022-10-19T10:32:53.239Z,64.42
2022-10-19T10:35:36.184Z,64.09
2022-10-19T10:38:15.377Z,64.28
2022-10-19T10:40:52.102Z,64.38
2022-10-19T10:43:28.867Z,64.35
2022-10-19T10:46:15.077Z,64.41
2022-10-19T10:48:53.498Z,63.98
2022-10-19T10:51:26.507Z,63.49
2022-10-19T10:54:21.904Z,63.41
2022-10-19T10:57:14.119Z,63.53
2022-10-19T11:00:09.019Z,63.49
2022-10-19T11:03:08.900Z,63.62
2022-10-19T11:05:46.075Z,63.42
2022-10-19T11:08:38.649Z,63.04
2022-10-19T11:11:22.499Z,63.26
2022-10-19T11:14:28.557Z,63.45
2022-10-19T11:17:07.959Z,63.18
2022-10-19T11:19:45.749Z,63.05
2022-10-19T11:22:26.400Z,62.31
2022-10-19T11:25:16.036Z,62.90
2022-10-19T11:27:46.449Z,62.85
2022-10-19T11:30:20.044Z,62.66
2022-10-19T11:33:06.802Z,62.73
2022-10-19T11:35:54.140Z,62.91
2022-10-19T11:38:42.562Z,62.74
2022-10-19T11:41:51.892Z,62.39
2022-10-19T11:44:38.410Z,62.44
2022-10-19T11:47:21.533Z,62.02
2022-10-19T11:53:19.005Z,61.88
2022-10-19T11:56:20.192Z,61.73
2022-10-19T11:59:14.628Z,61.90
2022-10-19T12:02:13.462Z,61.80
2022-10-19T12:05:05.967Z,61.78
2022-10-19T12:08:00.124Z,61.91
2022-10-19T12:10:42.130Z,61.61
2022-10-19T12:13:16.199Z,61.01
2022-10-19T12:15:54.626Z,61.41
2022-10-19T12:18:41.278Z,61.44
2022-10-19T12:21:32.114Z,61.56
2022-10-19T12:24:05.636Z,61.20
2022-10-19T12:26:36.609Z,61.17
2022-10-19T12:29:35.030Z,61.43
2022-10-19T12:32:05.696Z,61.19
2022-10-19T12:35:01.349Z,61.24
2022-10-19T12:37:43.129Z,61.22
2022-10-19T12:40:26.477Z,61.40
2022-10-19T12:43:14.743Z,61.22
2022-10-19T12:46:12.582Z,61.05
2022-10-19T12:48:40.355Z,60.17
2022-10-19T12:51:17.109Z,60.38
2022-10-19T12:53:49.172Z,60.82
2022-10-19T12:56:25.898Z,60.24
2022-10-19T12:59:01.775Z,60.60
2022-10-19T13:01:45.149Z,60.79
2022-10-19T13:04:18.714Z,60.62
2022-10-19T13:07:02.755Z,60.51
2022-10-19T13:09:44.050Z,60.52
2022-10-19T13:12:17.871Z,60.60
2022-10-19T13:15:03.847Z,60.51
2022-10-19T13:17:34.676Z,60.68
2022-10-19T13:20:13.322Z,60.35
2022-10-19T13:22:46.557Z,60.48
2022-10-19T13:25:23.786Z,60.61
2022-10-19T13:28:15.963Z,60.59
2022-10-19T13:30:48.427Z,60.42
2022-10-19T13:33:29.613Z,60.35
2022-10-19T13:36:03.087Z,60.24
2022-10-19T13:38:33.745Z,59.98
2022-10-19T13:41:45.095Z,60.21
2022-10-19T13:44:14.715Z,60.42
2022-10-19T13:47:13.343Z,60.51
2022-10-19T13:49:59.254Z,60.44
2022-10-19T13:52:45.143Z,60.32
2022-10-19T13:55:32.467Z,60.48
2022-10-19T13:58:05.993Z,60.48
2022-10-19T14:00:51.030Z,60.51
2022-10-19T14:03:40.553Z,60.46
2022-10-19T14:06:27.641Z,60.54
2022-10-19T14:09:23.885Z,60.39
2022-10-19T14:11:55.320Z,60.45
2022-10-19T14:14:25.197Z,60.59
2022-10-19T14:17:03.060Z,60.57
2022-10-19T14:19:43.391Z,60.58
2022-10-19T14:22:37.586Z,60.64
2022-10-19T14:25:11.088Z,60.61
2022-10-19T14:27:41.189Z,60.71
2022-10-19T14:30:27.698Z,60.68
2022-10-19T14:33:02.176Z,60.77
2022-10-19T14:35:36.406Z,60.72
2022-10-19T14:38:18.973Z,60.76
2022-10-19T14:40:47.886Z,60.79
2022-10-19T14:43:18.757Z,60.93
2022-10-19T14:46:04.655Z,61.16
2022-10-19T14:48:41.246Z,60.98
2022-10-19T14:51:21.979Z,61.00
2022-10-19T14:54:13.684Z,61.03
2022-10-19T14:57:18.550Z,61.12
2022-10-19T15:00:01.289Z,61.25
2022-10-19T15:02:44.429Z,61.16
2022-10-19T15:05:21.079Z,61.19
2022-10-19T15:07:50.622Z,61.49
2022-10-19T15:10:24.069Z,61.60
2022-10-19T15:12:58.210Z,61.57
2022-10-19T15:15:34.781Z,61.89
2022-10-19T15:18:05.566Z,61.63
2022-10-19T15:20:49.521Z,61.94
2022-10-19T15:23:44.847Z,61.76
2022-10-19T15:26:24.410Z,62.09
2022-10-19T15:28:53.577Z,62.00
2022-10-19T15:31:27.989Z,61.74
2022-10-19T15:34:02.490Z,62.83
2022-10-19T15:36:32.852Z,62.20
2022-10-19T15:39:18.270Z,62.12
2022-10-19T15:41:54.407Z,62.13
2022-10-19T15:44:43.696Z,62.22
2022-10-19T15:47:21.860Z,62.24
2022-10-19T15:49:52.597Z,62.26
2022-10-19T15:52:26.952Z,62.36
2022-10-19T15:55:00.654Z,62.50
2022-10-19T15:57:38.947Z,62.50
2022-10-19T16:00:21.797Z,62.96
2022-10-19T16:02:49.580Z,62.86
2022-10-19T16:05:17.405Z,63.31
2022-10-19T16:07:45.131Z,63.40
2022-10-19T16:10:23.159Z,63.10
2022-10-19T16:12:53.111Z,63.37
2022-10-19T16:15:24.277Z,63.16
2022-10-19T16:17:59.215Z,63.18
2022-10-19T16:20:31.581Z,63.17
2022-10-19T16:22:59.330Z,63.37
2022-10-19T16:25:27.187Z,63.38
2022-10-19T16:27:54.965Z,63.45
2022-10-19T16:30:26.058Z,63.32
2022-10-19T16:32:55.989Z,63.59
2022-10-19T16:35:26.260Z,63.77
2022-10-19T16:37:53.934Z,63.70
2022-10-19T16:40:28.114Z,63.82
2022-10-19T16:43:00.625Z,63.95
2022-10-19T16:45:30.976Z,64.02
2022-10-19T16:47:58.817Z,64.02
2022-10-19T16:50:29.567Z,63.95
2022-10-19T16:53:11.515Z,64.18
2022-10-19T16:55:42.071Z,64.11
2022-10-19T16:58:12.864Z,64.40
2022-10-19T17:00:42.748Z,64.62
2022-10-19T17:03:10.458Z,64.55
2022-10-19T17:05:40.303Z,64.49
2022-10-19T17:08:10.729Z,64.70
2022-10-19T17:10:38.528Z,64.60
2022-10-19T17:13:06.263Z,64.95
2022-10-19T17:15:42.928Z,64.86
2022-10-19T17:18:13.009Z,65.04
2022-10-19T17:20:40.655Z,65.03
2022-10-19T17:23:08.417Z,64.82
2022-10-19T17:25:37.486Z,65.02
2022-10-19T17:28:05.151Z,65.22
2022-10-19T17:30:32.825Z,65.16
2022-10-19T17:33:00.585Z,65.21
2022-10-19T17:35:28.343Z,65.16
2022-10-19T17:37:56.304Z,65.06
2022-10-19T17:40:24.020Z,65.16
2022-10-19T17:42:52.648Z,65.11
2022-10-19T17:45:21.180Z,65.23
2022-10-19T17:47:49.078Z,65.68
2022-10-19T17:50:16.849Z,65.76
2022-10-19T17:52:44.729Z,65.69
2022-10-19T17:55:13.292Z,65.52
2022-10-19T17:57:43.627Z,65.70
2022-10-19T18:00:11.765Z,66.91
2022-10-19T18:02:44.205Z,66.11
2022-10-19T18:05:11.979Z,65.87
2022-10-19T18:07:39.689Z,66.12
2022-10-19T18:10:07.730Z,66.17
2022-10-19T18:12:35.561Z,66.08
2022-10-19T18:15:04.380Z,66.17
2022-10-19T18:17:32.175Z,66.23
2022-10-19T18:19:59.948Z,66.09
2022-10-19T18:22:27.814Z,66.27
2022-10-19T18:24:55.755Z,66.19
2022-10-19T18:27:23.586Z,66.36
2022-10-19T18:29:51.470Z,66.34
2022-10-19T18:32:19.188Z,66.44
2022-10-19T18:34:46.881Z,66.48
2022-10-19T18:37:16.870Z,66.63
2022-10-19T18:39:44.848Z,66.47
2022-10-19T18:42:13.088Z,66.71
2022-10-19T18:44:41.040Z,66.52
2022-10-19T18:47:11.151Z,66.60
2022-10-19T18:49:38.873Z,66.73
2022-10-19T18:52:09.644Z,66.89
2022-10-19T18:54:37.389Z,66.68
2022-10-19T18:57:05.046Z,67.06
2022-10-19T18:59:32.918Z,66.91
2022-10-19T19:02:03.771Z,67.11
2022-10-19T19:04:35.432Z,67.17
2022-10-19T19:07:06.349Z,67.25
2022-10-19T19:09:34.809Z,67.38
2022-10-19T19:12:02.834Z,67.14
2022-10-19T19:14:36.775Z,67.41
2022-10-19T19:17:04.728Z,67.36
2022-10-19T19:19:36.248Z,67.38
2022-10-19T19:22:08.791Z,67.66
2022-10-19T19:24:38.655Z,67.65
2022-10-19T19:27:07.365Z,67.39
2022-10-19T19:29:38.458Z,67.55
2022-10-19T19:32:06.335Z,67.52
2022-10-19T19:34:36.831Z,67.57
2022-10-19T19:37:08.771Z,67.67
2022-10-19T19:39:42.388Z,67.59
2022-10-19T19:42:10.517Z,67.64
2022-10-19T19:44:38.297Z,67.50
2022-10-19T19:47:07.587Z,67.54
2022-10-19T19:49:36.501Z,67.70
2022-10-19T19:52:07.401Z,67.68
2022-10-19T19:54:37.866Z,67.67
2022-10-19T19:57:08.626Z,67.75
2022-10-19T19:59:36.303Z,67.75
2022-10-19T20:02:07.132Z,67.73
2022-10-19T20:04:35.191Z,67.89
2022-10-19T20:07:03.352Z,67.69
2022-10-19T20:09:31.366Z,67.95
2022-10-19T20:12:00.166Z,67.98
2022-10-19T20:14:30.217Z,68.07
2022-10-19T20:16:58.152Z,68.21
2022-10-19T20:19:25.986Z,67.99
2022-10-19T20:21:56.968Z,68.04
2022-10-19T20:24:24.677Z,68.14
2022-10-19T20:26:53.097Z,68.40
2022-10-19T20:29:24.670Z,68.39
2022-10-19T20:31:52.475Z,68.48
2022-10-19T20:34:21.939Z,68.58
2022-10-19T20:36:54.471Z,68.33
2022-10-19T20:39:24.864Z,68.36
2022-10-19T20:41:53.276Z,68.53
2022-10-19T20:44:21.007Z,68.58
2022-10-19T20:46:51.655Z,68.35
2022-10-19T20:49:20.173Z,68.52
2022-10-19T20:51:48.061Z,68.53
2022-10-19T20:54:17.019Z,68.54
2022-10-19T20:56:44.678Z,68.77
2022-10-19T20:59:17.559Z,68.72
2022-10-19T21:01:52.136Z,68.64
2022-10-19T21:04:19.967Z,68.52
2022-10-19T21:06:51.916Z,68.67
2022-10-19T21:09:24.092Z,68.57
2022-10-19T21:11:55.958Z,68.76
2022-10-19T21:14:28.987Z,68.65
2022-10-19T21:17:00.591Z,68.79
2022-10-19T21:19:31.185Z,68.74
2022-10-19T21:22:02.993Z,68.63
2022-10-19T21:24:35.530Z,68.79
2022-10-19T21:27:09.045Z,68.88
2022-10-19T21:29:37.411Z,68.92
2022-10-19T21:32:05.532Z,68.88
2022-10-19T21:34:33.976Z,68.64
2022-10-19T21:37:01.823Z,68.71
2022-10-19T21:39:29.628Z,68.64
2022-10-19T21:41:59.741Z,68.72
2022-10-19T21:44:30.054Z,68.71
2022-10-19T21:46:57.678Z,68.86
2022-10-19T21:49:25.377Z,68.97
2022-10-19T21:51:55.992Z,68.83
2022-10-19T21:54:26.756Z,68.71
2022-10-19T21:57:00.259Z,68.79
2022-10-19T21:59:27.956Z,68.97
2022-10-19T22:01:56.924Z,68.87
2022-10-19T22:04:24.706Z,68.89
2022-10-19T22:06:56.019Z,69.04
2022-10-19T22:09:25.870Z,69.06
2022-10-19T22:11:53.641Z,68.96
2022-10-19T22:14:21.352Z,68.80
2022-10-19T22:16:49.164Z,69.00
2022-10-19T22:19:19.856Z,69.14
2022-10-19T22:21:50.556Z,68.97
2022-10-19T22:24:18.625Z,68.95
2022-10-19T22:26:50.878Z,68.95
2022-10-19T22:29:21.967Z,69.10
2022-10-19T22:31:52.703Z,69.16
2022-10-19T22:34:20.474Z,69.16
2022-10-19T22:36:49.065Z,69.09
2022-10-19T22:39:17.024Z,69.07
2022-10-19T22:42:41.453Z,69.16
2022-10-19T22:45:12.206Z,69.24
2022-10-19T22:47:43.107Z,69.39
2022-10-19T22:50:14.554Z,69.34
2022-10-19T22:52:42.452Z,69.39
2022-10-19T22:55:13.627Z,69.34
2022-10-19T22:57:41.484Z,69.35
2022-10-19T23:00:11.820Z,69.45
2022-10-19T23:02:39.671Z,69.49
2022-10-19T23:05:13.095Z,69.41
2022-10-19T23:07:40.923Z,69.34
2022-10-19T23:10:14.465Z,69.31
2022-10-19T23:12:42.312Z,69.38
2022-10-19T23:15:10.610Z,69.28
2022-10-19T23:17:41.630Z,69.41
2022-10-19T23:20:10.238Z,69.48
2022-10-19T23:22:38.092Z,69.43
2022-10-19T23:25:09.077Z,69.56
2022-10-19T23:27:37.407Z,69.57
2022-10-19T23:30:08.509Z,69.62
2022-10-19T23:32:36.509Z,69.58
2022-10-19T23:35:07.431Z,69.60
2022-10-19T23:37:38.408Z,69.61
2022-10-19T23:40:09.487Z,69.68
2022-10-19T23:42:37.216Z,69.51
2022-10-19T23:45:05.280Z,69.74
2022-10-19T23:47:33.121Z,69.74
2022-10-19T23:50:03.804Z,69.70
2022-10-19T23:52:34.429Z,69.70
2022-10-19T23:55:02.136Z,69.73
2022-10-19T23:57:33.006Z,69.76
